URWW 200930Z 07005MPS CAVOK 22/01 Q1018 R05/010070 NOSIG
QNH:(hPa/inHg/mmHg)1018 / 30.06 / 764
QFE:(hPa/inHg/mmHg)1000 / 29.53 / 750
Temperature22
Dew Point1
Visibility> 10000
WeatherCAVOK
Cloud Cover
Transition Altitude3000 ft.
Transition LevelFL40
SQUAWK